Time;durP1;ratioP1;P1;durP2;ratioP2;P2;SDS_P1;SDS_P2;PMS_P1;PMS_P2;Temp;Humidity;BMP_temperature;BMP_pressure;BME280_temperature;BME280_humidity;BME280_pressure;Samples;Min_cycle;Max_cycle;Signal;HPM_P1;HPM_P2
2022/04/12 00:00:33;;;;;;;4.38;3.90;;;;;;;;;;5084414;28;20587;-66
2022/04/12 00:03:01;;;;;;;3.70;3.50;;;;;;;;;;5084866;28;20204;-67
2022/04/12 00:05:27;;;;;;;4.88;4.00;;;;;;;;;;5084710;28;20219;-67
2022/04/12 00:07:54;;;;;;;4.63;4.10;;;;;;;;;;5084038;28;20203;-67
2022/04/12 00:10:20;;;;;;;4.28;3.97;;;;;;;;;;5084479;28;20197;-67
2022/04/12 00:12:47;;;;;;;4.40;3.90;;;;;;;;;;5084478;28;20207;-66
2022/04/12 00:15:13;;;;;;;5.38;4.10;;;;;;;;;;5084225;28;20224;-66
2022/04/12 00:20:26;;;;;;;4.10;3.80;;;;;;;;;;5084396;28;20207;-66
2022/04/12 00:22:52;;;;;;;5.28;4.07;;;;;;;;;;5084219;28;20558;-67
2022/04/12 00:25:22;;;;;;;4.70;4.30;;;;;;;;;;5084170;28;20192;-67
2022/04/12 00:27:48;;;;;;;7.10;4.10;;;;;;;;;;5083754;28;20201;-66
2022/04/12 00:30:15;;;;;;;5.45;5.05;;;;;;;;;;5084373;28;20250;-67
2022/04/12 00:32:41;;;;;;;4.10;3.80;;;;;;;;;;5084163;28;20202;-66
2022/04/12 00:35:08;;;;;;;4.43;4.03;;;;;;;;;;5083887;28;20223;-67
2022/04/12 00:37:36;;;;;;;4.45;3.55;;;;;;;;;;5083591;28;20218;-66
2022/04/12 00:40:03;;;;;;;3.97;3.67;;;;;;;;;;5083791;28;20203;-66
2022/04/12 00:42:30;;;;;;;4.55;4.15;;;;;;;;;;5083863;28;20197;-66
2022/04/12 00:44:56;;;;;;;4.28;4.00;;;;;;;;;;5083974;28;20192;-67
2022/04/12 00:47:22;;;;;;;7.55;4.25;;;;;;;;;;5083597;28;20392;-67
2022/04/12 00:49:49;;;;;;;5.05;4.00;;;;;;;;;;5084087;28;20526;-66
2022/04/12 00:52:15;;;;;;;3.80;3.60;;;;;;;;;;5083657;28;20197;-66
2022/04/12 00:54:43;;;;;;;3.70;3.40;;;;;;;;;;5083943;28;20200;-67
2022/04/12 00:57:10;;;;;;;4.32;4.00;;;;;;;;;;5083597;28;20193;-66
2022/04/12 00:59:36;;;;;;;3.88;3.58;;;;;;;;;;5083565;28;20196;-67
2022/04/12 01:02:02;;;;;;;3.95;3.75;;;;;;;;;;5083594;28;20203;-67
2022/04/12 01:04:29;;;;;;;3.38;3.17;;;;;;;;;;5083376;28;20197;-66
2022/04/12 01:06:55;;;;;;;3.65;3.45;;;;;;;;;;5082592;28;20204;-66
2022/04/12 01:09:22;;;;;;;4.38;3.65;;;;;;;;;;5082728;28;20203;-67
2022/04/12 01:11:49;;;;;;;3.40;3.10;;;;;;;;;;5083245;28;20270;-66
2022/04/12 01:14:15;;;;;;;3.33;3.13;;;;;;;;;;5082969;28;20200;-66
2022/04/12 01:16:42;;;;;;;3.15;2.95;;;;;;;;;;5082834;28;20220;-66
2022/04/12 01:19:08;;;;;;;3.17;2.85;;;;;;;;;;5083142;28;20508;-66
2022/04/12 01:21:36;;;;;;;2.95;2.80;;;;;;;;;;5083137;28;20208;-66
2022/04/12 01:24:05;;;;;;;3.55;3.20;;;;;;;;;;5083194;28;20241;-66
2022/04/12 01:26:31;;;;;;;3.00;2.80;;;;;;;;;;5082636;28;20196;-67
2022/04/12 01:28:57;;;;;;;3.72;3.53;;;;;;;;;;5082986;28;20196;-66
2022/04/12 01:31:24;;;;;;;3.20;3.00;;;;;;;;;;5082981;28;20204;-67
2022/04/12 01:33:50;;;;;;;3.92;3.30;;;;;;;;;;5082752;28;20211;-66
2022/04/12 01:36:17;;;;;;;3.20;3.00;;;;;;;;;;5082485;28;20223;-66
2022/04/12 01:38:43;;;;;;;3.35;3.15;;;;;;;;;;5081970;28;20200;-66
2022/04/12 01:41:10;;;;;;;5.57;2.85;;;;;;;;;;5082720;28;20204;-66
2022/04/12 01:43:37;;;;;;;5.70;3.30;;;;;;;;;;5082707;28;20242;-66
2022/04/12 01:46:03;;;;;;;2.83;2.72;;;;;;;;;;5082290;28;20196;-66
2022/04/12 01:48:30;;;;;;;3.42;3.17;;;;;;;;;;5082453;28;20196;-66
2022/04/12 01:50:56;;;;;;;3.13;2.92;;;;;;;;;;5082723;28;20200;-66
2022/04/12 01:53:22;;;;;;;3.38;3.05;;;;;;;;;;5082797;28;20208;-66
2022/04/12 01:55:49;;;;;;;3.30;3.10;;;;;;;;;;5082523;28;20265;-66
2022/04/12 01:58:16;;;;;;;2.80;2.60;;;;;;;;;;5082376;28;20196;-66
2022/04/12 02:00:43;;;;;;;3.03;2.72;;;;;;;;;;5082372;28;20216;-66
2022/04/12 02:03:10;;;;;;;2.90;2.70;;;;;;;;;;5082348;28;20201;-66
2022/04/12 02:05:36;;;;;;;3.20;3.05;;;;;;;;;;5082324;28;20235;-66
2022/04/12 02:08:02;;;;;;;3.33;3.03;;;;;;;;;;5082133;28;20204;-66
2022/04/12 02:10:29;;;;;;;3.33;3.10;;;;;;;;;;5082434;28;20234;-66
2022/04/12 02:12:55;;;;;;;3.15;2.78;;;;;;;;;;5082355;28;20430;-66
2022/04/12 02:15:23;;;;;;;4.68;2.92;;;;;;;;;;5082133;28;20395;-66
2022/04/12 02:17:49;;;;;;;2.67;2.47;;;;;;;;;;5082228;28;20197;-66
2022/04/12 02:20:15;;;;;;;2.95;2.60;;;;;;;;;;5081970;28;20201;-66
2022/04/12 02:22:41;;;;;;;3.25;2.90;;;;;;;;;;5082244;28;20204;-66
2022/04/12 02:25:08;;;;;;;3.40;3.20;;;;;;;;;;5082280;28;20200;-66
2022/04/12 02:27:34;;;;;;;3.30;3.00;;;;;;;;;;5081949;28;20199;-66
2022/04/12 02:30:01;;;;;;;2.95;2.75;;;;;;;;;;5082054;28;20204;-66
2022/04/12 02:32:29;;;;;;;3.53;3.22;;;;;;;;;;5082100;28;20200;-66
2022/04/12 02:34:57;;;;;;;3.15;2.95;;;;;;;;;;5082186;28;20200;-66
2022/04/12 02:37:24;;;;;;;3.35;3.13;;;;;;;;;;5081917;28;20554;-66
2022/04/12 02:39:50;;;;;;;3.22;2.90;;;;;;;;;;5082065;28;20426;-66
2022/04/12 02:42:17;;;;;;;3.05;2.85;;;;;;;;;;5082015;28;20235;-66
2022/04/12 02:44:43;;;;;;;3.78;3.30;;;;;;;;;;5082509;28;20197;-66
2022/04/12 02:47:09;;;;;;;4.00;3.80;;;;;;;;;;5081902;28;20246;-66
2022/04/12 02:49:37;;;;;;;3.78;3.20;;;;;;;;;;5082003;28;20197;-66
2022/04/12 02:52:03;;;;;;;3.92;3.72;;;;;;;;;;5082249;28;20242;-66
2022/04/12 02:54:29;;;;;;;4.03;3.78;;;;;;;;;;5081947;28;20196;-66
2022/04/12 02:56:56;;;;;;;4.13;3.83;;;;;;;;;;5081447;28;20274;-66
2022/04/12 02:59:22;;;;;;;4.60;4.00;;;;;;;;;;5081813;28;20200;-66
2022/04/12 03:01:48;;;;;;;7.05;4.00;;;;;;;;;;5081713;28;20213;-66
2022/04/12 03:04:14;;;;;;;8.48;4.63;;;;;;;;;;5082322;28;20484;-66
2022/04/12 03:06:42;;;;;;;4.25;3.95;;;;;;;;;;5081593;28;20444;-66
2022/04/12 03:09:08;;;;;;;3.70;3.47;;;;;;;;;;5081840;28;20231;-66
2022/04/12 03:11:36;;;;;;;3.92;3.63;;;;;;;;;;5081707;28;20204;-66
2022/04/12 03:14:02;;;;;;;5.55;4.63;;;;;;;;;;5082102;28;20197;-66
2022/04/12 03:16:29;;;;;;;4.20;3.80;;;;;;;;;;5081334;28;20221;-66
2022/04/12 03:18:55;;;;;;;4.75;3.63;;;;;;;;;;5081739;28;20197;-66
2022/04/12 03:21:21;;;;;;;4.25;3.95;;;;;;;;;;5081799;28;20569;-66
2022/04/12 03:23:49;;;;;;;3.92;3.65;;;;;;;;;;5081611;28;20242;-66
2022/04/12 03:26:15;;;;;;;4.25;3.92;;;;;;;;;;5081368;28;20201;-66
2022/04/12 03:28:41;;;;;;;5.68;3.80;;;;;;;;;;5081791;28;20224;-66
2022/04/12 03:31:07;;;;;;;4.22;3.92;;;;;;;;;;5081572;28;20197;-66
2022/04/12 03:33:34;;;;;;;5.18;3.88;;;;;;;;;;5083501;28;20196;-66
2022/04/12 03:36:00;;;;;;;4.60;4.20;;;;;;;;;;5084839;28;20239;-66
2022/04/12 03:38:26;;;;;;;4.30;3.95;;;;;;;;;;5084857;28;20200;-66
2022/04/12 03:40:58;;;;;;;4.72;4.15;;;;;;;;;;5085321;28;20203;-66
2022/04/12 03:43:24;;;;;;;3.97;3.63;;;;;;;;;;5085238;28;20388;-66
2022/04/12 03:45:50;;;;;;;3.97;3.78;;;;;;;;;;5085030;28;20196;-66
2022/04/12 03:48:17;;;;;;;5.38;4.05;;;;;;;;;;5084882;28;20204;-66
2022/04/12 03:50:44;;;;;;;6.07;4.82;;;;;;;;;;5084953;28;20314;-68
2022/04/12 03:53:10;;;;;;;6.00;5.03;;;;;;;;;;5084796;28;20196;-66
2022/04/12 03:55:39;;;;;;;4.80;4.30;;;;;;;;;;5084999;28;20201;-66
2022/04/12 03:58:08;;;;;;;5.72;4.45;;;;;;;;;;5084587;28;20196;-66
2022/04/12 04:00:34;;;;;;;5.25;4.55;;;;;;;;;;5084755;28;20231;-66
2022/04/12 04:03:00;;;;;;;5.47;4.75;;;;;;;;;;5084712;28;20197;-66
2022/04/12 04:05:27;;;;;;;4.95;4.55;;;;;;;;;;5084587;28;20454;-66
2022/04/12 04:07:54;;;;;;;8.00;5.00;;;;;;;;;;5084338;28;20201;-66
2022/04/12 04:10:20;;;;;;;5.35;4.95;;;;;;;;;;5084753;28;20196;-66
2022/04/12 04:12:47;;;;;;;5.60;5.15;;;;;;;;;;5084412;28;20196;-66
2022/04/12 04:15:14;;;;;;;5.40;5.00;;;;;;;;;;5084548;28;20242;-69
2022/04/12 04:17:41;;;;;;;9.02;5.05;;;;;;;;;;5084032;28;20227;-66
2022/04/12 04:20:08;;;;;;;6.55;5.07;;;;;;;;;;5084160;28;20423;-66
2022/04/12 04:22:34;;;;;;;6.90;4.88;;;;;;;;;;5084396;28;20206;-65
2022/04/12 04:25:00;;;;;;;7.45;5.03;;;;;;;;;;5084386;28;20274;-65
2022/04/12 04:27:28;;;;;;;5.22;4.72;;;;;;;;;;5084284;28;20192;-65
2022/04/12 04:29:55;;;;;;;5.30;4.90;;;;;;;;;;5084173;28;20368;-65
2022/04/12 04:32:23;;;;;;;5.40;4.90;;;;;;;;;;5084115;28;20204;-65
2022/04/12 04:34:49;;;;;;;5.25;4.75;;;;;;;;;;5083801;28;20504;-65
2022/04/12 04:37:15;;;;;;;5.55;5.13;;;;;;;;;;5083571;28;20242;-65
2022/04/12 04:39:42;;;;;;;6.15;5.18;;;;;;;;;;5083886;28;20384;-65
2022/04/12 04:42:08;;;;;;;5.38;4.88;;;;;;;;;;5083932;28;20434;-65
2022/04/12 04:44:34;;;;;;;4.97;4.47;;;;;;;;;;5083577;28;20196;-65
2022/04/12 04:47:00;;;;;;;6.25;4.90;;;;;;;;;;5083532;28;20246;-65
2022/04/12 04:49:28;;;;;;;5.65;5.15;;;;;;;;;;5083573;28;20419;-65
2022/04/12 04:51:54;;;;;;;8.63;4.72;;;;;;;;;;5084081;28;20423;-65
2022/04/12 04:54:20;;;;;;;8.18;5.15;;;;;;;;;;5083680;28;20196;-65
2022/04/12 04:56:47;;;;;;;5.47;4.93;;;;;;;;;;5083296;28;20216;-65
2022/04/12 04:59:13;;;;;;;5.53;5.03;;;;;;;;;;5083550;28;20238;-65
2022/04/12 05:01:39;;;;;;;5.57;4.88;;;;;;;;;;5083286;28;20208;-65
2022/04/12 05:04:05;;;;;;;4.63;4.22;;;;;;;;;;5083334;28;20204;-65
2022/04/12 05:06:33;;;;;;;4.60;4.20;;;;;;;;;;5083129;28;20567;-65
2022/04/12 05:08:59;;;;;;;4.32;3.92;;;;;;;;;;5083408;28;20492;-65
2022/04/12 05:11:26;;;;;;;6.07;4.00;;;;;;;;;;5083433;28;20538;-67
2022/04/12 05:13:55;;;;;;;4.50;4.10;;;;;;;;;;5083206;28;20220;-65
2022/04/12 05:16:21;;;;;;;5.40;4.97;;;;;;;;;;5082790;28;20212;-67
2022/04/12 05:18:47;;;;;;;4.93;4.43;;;;;;;;;;5083296;28;20417;-65
2022/04/12 05:21:14;;;;;;;5.57;4.88;;;;;;;;;;5083242;28;20196;-65
2022/04/12 05:23:41;;;;;;;5.25;4.70;;;;;;;;;;5083191;28;20383;-67
2022/04/12 05:26:08;;;;;;;5.43;4.55;;;;;;;;;;5082954;28;20493;-67
2022/04/12 05:28:34;;;;;;;5.28;4.80;;;;;;;;;;5082861;28;20204;-67
2022/04/12 05:31:00;;;;;;;5.85;5.15;;;;;;;;;;5082277;28;20200;-65
2022/04/12 05:33:26;;;;;;;6.35;4.93;;;;;;;;;;5082381;28;20196;-65
2022/04/12 05:35:52;;;;;;;6.30;4.88;;;;;;;;;;5082300;28;20254;-66
2022/04/12 05:38:19;;;;;;;5.72;5.22;;;;;;;;;;5081968;28;20220;-65
2022/04/12 05:40:46;;;;;;;6.40;5.80;;;;;;;;;;5082106;28;20242;-65
2022/04/12 05:43:13;;;;;;;6.18;5.68;;;;;;;;;;5081972;28;20250;-65
2022/04/12 05:45:39;;;;;;;6.20;5.60;;;;;;;;;;5082247;28;20204;-67
2022/04/12 05:48:05;;;;;;;6.75;5.75;;;;;;;;;;5082084;28;20268;-66
2022/04/12 05:50:32;;;;;;;9.38;5.72;;;;;;;;;;5081857;28;20196;-66
2022/04/12 05:52:58;;;;;;;8.35;6.10;;;;;;;;;;5082098;28;20200;-66
2022/04/12 05:55:26;;;;;;;8.15;6.05;;;;;;;;;;5081520;28;20196;-66
2022/04/12 05:57:55;;;;;;;11.20;6.35;;;;;;;;;;5081386;28;20554;-60
2022/04/12 06:00:21;;;;;;;9.88;6.45;;;;;;;;;;5079799;28;20239;-59
2022/04/12 06:02:48;;;;;;;11.27;6.47;;;;;;;;;;5088985;28;20283;-62
2022/04/12 06:05:14;;;;;;;11.15;6.85;;;;;;;;;;5094819;28;20223;-60
2022/04/12 06:07:41;;;;;;;8.15;6.63;;;;;;;;;;5085939;28;20430;-61
2022/04/12 06:10:08;;;;;;;10.20;6.65;;;;;;;;;;5093134;28;20249;-62
2022/04/12 06:12:34;;;;;;;13.55;6.47;;;;;;;;;;5094989;28;20226;-62
2022/04/12 06:15:02;;;;;;;8.52;6.47;;;;;;;;;;5094997;28;20215;-61
2022/04/12 06:17:29;;;;;;;9.52;5.97;;;;;;;;;;5095336;28;20238;-61
2022/04/12 06:19:59;;;;;;;9.52;6.35;;;;;;;;;;5095822;28;20207;-61
2022/04/12 06:22:25;;;;;;;7.13;6.05;;;;;;;;;;5096066;28;20265;-62
2022/04/12 06:24:51;;;;;;;10.70;6.88;;;;;;;;;;5096001;28;20261;-61
2022/04/12 06:27:17;;;;;;;10.98;6.72;;;;;;;;;;5096128;28;20208;-61
2022/04/12 06:29:44;;;;;;;6.97;6.43;;;;;;;;;;5095523;28;20387;-61
2022/04/12 06:32:11;;;;;;;9.52;7.10;;;;;;;;;;5095654;28;20445;-62
2022/04/12 06:34:37;;;;;;;9.82;7.32;;;;;;;;;;5096149;28;20207;-61
2022/04/12 06:37:04;;;;;;;9.48;7.50;;;;;;;;;;5095684;28;20288;-61
2022/04/12 06:39:30;;;;;;;8.23;6.93;;;;;;;;;;5095470;28;20207;-59
2022/04/12 06:41:56;;;;;;;9.73;7.20;;;;;;;;;;5095836;28;20204;-60
2022/04/12 06:44:23;;;;;;;10.98;6.90;;;;;;;;;;5095632;28;20527;-59
2022/04/12 06:46:49;;;;;;;8.10;7.30;;;;;;;;;;5095513;28;20214;-60
2022/04/12 06:49:16;;;;;;;9.38;6.70;;;;;;;;;;5095466;28;20208;-61
2022/04/12 06:51:43;;;;;;;8.30;6.47;;;;;;;;;;5096051;28;20249;-60
2022/04/12 06:54:09;;;;;;;10.55;6.75;;;;;;;;;;5095997;28;20211;-57
2022/04/12 06:56:35;;;;;;;9.23;6.97;;;;;;;;;;5094955;28;20212;-60
2022/04/12 06:59:01;;;;;;;8.05;6.72;;;;;;;;;;5095236;28;20219;-59
2022/04/12 07:01:31;;;;;;;15.73;7.22;;;;;;;;;;5095148;28;20212;-61
2022/04/12 07:03:57;;;;;;;9.25;6.75;;;;;;;;;;5094761;28;20230;-59
2022/04/12 07:06:25;;;;;;;14.00;7.60;;;;;;;;;;5095404;28;20458;-60
2022/04/12 07:08:51;;;;;;;14.50;7.65;;;;;;;;;;5099197;28;20204;-61
2022/04/12 07:11:17;;;;;;;10.82;7.72;;;;;;;;;;5099379;28;20260;-58
2022/04/12 07:13:44;;;;;;;11.43;7.18;;;;;;;;;;5099475;28;20212;-60
2022/04/12 07:16:10;;;;;;;11.00;7.30;;;;;;;;;;5099281;28;20208;-60
2022/04/12 07:18:37;;;;;;;8.05;7.25;;;;;;;;;;5099607;28;20513;-59
2022/04/12 07:21:04;;;;;;;8.68;6.78;;;;;;;;;;5099432;28;20249;-60
2022/04/12 07:23:31;;;;;;;9.15;7.38;;;;;;;;;;5099398;28;20211;-60
2022/04/12 07:25:58;;;;;;;10.88;7.18;;;;;;;;;;5099141;28;20206;-58
2022/04/12 07:28:24;;;;;;;13.07;7.53;;;;;;;;;;5099133;28;20241;-59
2022/04/12 07:30:50;;;;;;;9.73;7.40;;;;;;;;;;5098602;28;20211;-60
2022/04/12 07:33:17;;;;;;;12.35;8.27;;;;;;;;;;5098913;28;20208;-60
2022/04/12 07:35:43;;;;;;;11.23;7.45;;;;;;;;;;5098955;28;20284;-60
2022/04/12 07:38:10;;;;;;;12.90;6.95;;;;;;;;;;5098278;28;20228;-59
2022/04/12 07:40:37;;;;;;;13.85;7.07;;;;;;;;;;5098490;28;20230;-60
2022/04/12 07:43:04;;;;;;;11.98;6.50;;;;;;;;;;5100398;28;20211;-60
2022/04/12 07:45:30;;;;;;;10.55;6.53;;;;;;;;;;5100254;28;20207;-60
2022/04/12 07:47:56;;;;;;;7.05;6.35;;;;;;;;;;5098537;28;20207;-61
2022/04/12 07:50:22;;;;;;;9.00;6.95;;;;;;;;;;5098337;28;20273;-61
2022/04/12 07:52:49;;;;;;;7.40;6.70;;;;;;;;;;5098319;28;20213;-60
2022/04/12 07:55:15;;;;;;;7.13;6.45;;;;;;;;;;5098534;28;20208;-58
2022/04/12 07:57:42;;;;;;;7.93;6.85;;;;;;;;;;5098015;28;20442;-61
2022/04/12 08:00:10;;;;;;;12.38;7.68;;;;;;;;;;5098166;28;20438;-59
2022/04/12 08:02:36;;;;;;;13.43;7.63;;;;;;;;;;5091367;28;20244;-58
2022/04/12 08:05:02;;;;;;;8.75;6.95;;;;;;;;;;5089386;28;20262;-59
2022/04/12 08:07:29;;;;;;;12.95;7.45;;;;;;;;;;5077708;28;20196;-61
2022/04/12 08:09:55;;;;;;;19.58;7.55;;;;;;;;;;5077670;28;20519;-60
2022/04/12 08:12:21;;;;;;;12.80;6.63;;;;;;;;;;5078062;28;20209;-61
2022/04/12 08:14:49;;;;;;;7.70;6.10;;;;;;;;;;5077478;28;20250;-60
2022/04/12 08:17:15;;;;;;;9.05;6.65;;;;;;;;;;5077393;28;20212;-61
2022/04/12 08:19:41;;;;;;;7.53;6.82;;;;;;;;;;5076610;28;20266;-61
2022/04/12 08:22:08;;;;;;;9.50;7.75;;;;;;;;;;5077243;28;20216;-60
2022/04/12 08:24:36;;;;;;;10.32;7.50;;;;;;;;;;5088694;28;20557;-60
2022/04/12 08:27:03;;;;;;;10.60;6.88;;;;;;;;;;5097541;28;20212;-60
2022/04/12 08:29:29;;;;;;;11.70;6.80;;;;;;;;;;5097413;28;20469;-59
2022/04/12 08:31:57;;;;;;;12.05;7.18;;;;;;;;;;5097774;28;20212;-60
2022/04/12 08:34:23;;;;;;;20.38;7.18;;;;;;;;;;5097708;28;20208;-59
2022/04/12 08:36:49;;;;;;;18.17;8.10;;;;;;;;;;5097853;28;20215;-59
2022/04/12 08:39:15;;;;;;;10.75;6.80;;;;;;;;;;5097108;28;20232;-60
2022/04/12 08:41:42;;;;;;;13.63;6.65;;;;;;;;;;5097779;28;20406;-60
2022/04/12 08:44:08;;;;;;;13.02;6.95;;;;;;;;;;5097324;28;20211;-61
2022/04/12 08:46:37;;;;;;;14.70;7.82;;;;;;;;;;5097105;28;20257;-61
2022/04/12 08:49:04;;;;;;;14.52;7.57;;;;;;;;;;5097198;28;20242;-61
2022/04/12 08:51:31;;;;;;;16.35;9.45;;;;;;;;;;5097537;28;20211;-61
2022/04/12 08:53:58;;;;;;;18.05;8.90;;;;;;;;;;5097645;28;20422;-61
2022/04/12 08:56:24;;;;;;;9.20;7.70;;;;;;;;;;5097029;28;20211;-60
2022/04/12 08:58:51;;;;;;;11.32;6.47;;;;;;;;;;5097285;28;20231;-61
2022/04/12 09:01:17;;;;;;;6.60;5.90;;;;;;;;;;5097661;28;20219;-60
2022/04/12 09:03:46;;;;;;;7.03;6.03;;;;;;;;;;5097388;28;20207;-61
2022/04/12 09:06:13;;;;;;;8.02;6.10;;;;;;;;;;5097154;28;20265;-61
2022/04/12 09:08:40;;;;;;;7.43;5.63;;;;;;;;;;5096910;28;20261;-61
2022/04/12 09:11:07;;;;;;;8.02;5.20;;;;;;;;;;5097054;28;20208;-60
2022/04/12 09:13:33;;;;;;;8.20;5.45;;;;;;;;;;5096978;28;20235;-60
2022/04/12 09:16:00;;;;;;;6.65;5.25;;;;;;;;;;5096769;28;20234;-61
2022/04/12 09:18:34;;;;;;;7.88;4.97;;;;;;;;;;5096934;28;20276;-60
2022/04/12 09:21:14;;;;;;;7.05;4.80;;;;;;;;;;5097032;28;20214;-60
2022/04/12 09:23:41;;;;;;;8.32;6.53;;;;;;;;;;5097428;28;20215;-60
2022/04/12 09:26:08;;;;;;;10.32;5.57;;;;;;;;;;5096825;28;20207;-61
2022/04/12 09:28:39;;;;;;;6.38;5.30;;;;;;;;;;5096777;28;20265;-61
2022/04/12 09:31:10;;;;;;;7.00;4.82;;;;;;;;;;5096002;28;20207;-60
2022/04/12 09:33:37;;;;;;;4.65;4.20;;;;;;;;;;5097247;28;20332;-61
2022/04/12 09:36:04;;;;;;;5.03;4.45;;;;;;;;;;5096701;28;20214;-61
2022/04/12 09:38:32;;;;;;;7.65;4.15;;;;;;;;;;5096816;28;20224;-61
2022/04/12 09:41:10;;;;;;;5.20;4.13;;;;;;;;;;5096538;28;20462;-60
2022/04/12 09:43:41;;;;;;;4.40;3.65;;;;;;;;;;5097305;28;20550;-61
2022/04/12 09:46:07;;;;;;;3.67;3.38;;;;;;;;;;5097098;28;20214;-61
2022/04/12 09:48:34;;;;;;;4.22;3.38;;;;;;;;;;5096618;28;20200;-61
2022/04/12 09:51:01;;;;;;;5.97;3.35;;;;;;;;;;5096149;28;20232;-62
2022/04/12 09:53:38;;;;;;;5.95;3.60;;;;;;;;;;5096285;28;20519;-61
2022/04/12 09:56:14;;;;;;;5.55;2.83;;;;;;;;;;5096672;28;20399;-61
2022/04/12 09:58:41;;;;;;;3.13;2.92;;;;;;;;;;5096178;28;20227;-61
2022/04/12 10:01:09;;;;;;;5.95;2.78;;;;;;;;;;5096029;28;20212;-61
2022/04/12 10:03:37;;;;;;;3.50;3.10;;;;;;;;;;5096509;28;20208;-61
2022/04/12 10:06:04;;;;;;;3.55;3.20;;;;;;;;;;5096470;28;20220;-60
2022/04/12 10:08:31;;;;;;;2.88;2.70;;;;;;;;;;5096971;28;20203;-61
2022/04/12 10:10:59;;;;;;;4.57;2.85;;;;;;;;;;5096543;28;20586;-62
2022/04/12 10:13:25;;;;;;;3.25;2.95;;;;;;;;;;5096796;28;20208;-61
2022/04/12 10:15:52;;;;;;;8.65;2.65;;;;;;;;;;5096774;28;20208;-61
2022/04/12 10:18:20;;;;;;;6.35;2.75;;;;;;;;;;5096501;28;20233;-61
2022/04/12 10:20:46;;;;;;;8.10;2.83;;;;;;;;;;5096277;28;20204;-60
2022/04/12 10:23:13;;;;;;;3.20;3.00;;;;;;;;;;5096726;28;20208;-61
2022/04/12 10:25:39;;;;;;;6.63;2.75;;;;;;;;;;5096636;28;20207;-61
2022/04/12 10:28:07;;;;;;;4.72;2.47;;;;;;;;;;5096575;28;20208;-61
2022/04/12 10:30:33;;;;;;;5.93;2.50;;;;;;;;;;5095876;28;20208;-60
2022/04/12 10:33:00;;;;;;;7.13;2.58;;;;;;;;;;5096445;28;20208;-61
2022/04/12 10:35:27;;;;;;;5.25;2.60;;;;;;;;;;5096742;28;20286;-61
2022/04/12 10:37:56;;;;;;;2.35;2.15;;;;;;;;;;5096065;28;20253;-60
2022/04/12 10:40:23;;;;;;;3.65;2.05;;;;;;;;;;5096065;28;20399;-62
2022/04/12 10:42:50;;;;;;;2.38;1.65;;;;;;;;;;5099139;28;20207;-60
2022/04/12 10:45:27;;;;;;;2.85;2.08;;;;;;;;;;5100468;28;20199;-61
2022/04/12 10:47:57;;;;;;;3.55;1.73;;;;;;;;;;5100591;28;20207;-61
2022/04/12 10:50:23;;;;;;;2.50;2.00;;;;;;;;;;5100173;28;20207;-61
2022/04/12 10:52:49;;;;;;;3.60;2.75;;;;;;;;;;5100610;28;20418;-60
2022/04/12 10:55:19;;;;;;;7.47;1.83;;;;;;;;;;5100213;28;20577;-61
2022/04/12 10:57:46;;;;;;;4.18;2.53;;;;;;;;;;5100331;28;20275;-61
2022/04/12 11:00:13;;;;;;;2.00;1.30;;;;;;;;;;5099409;28;20219;-61
2022/04/12 11:02:42;;;;;;;2.00;1.80;;;;;;;;;;5100429;28;20211;-61
2022/04/12 11:05:28;;;;;;;2.97;1.60;;;;;;;;;;5099950;28;20230;-61
2022/04/12 11:07:54;;;;;;;3.92;1.67;;;;;;;;;;5099811;28;20215;-61
2022/04/12 11:10:21;;;;;;;2.17;1.63;;;;;;;;;;5100318;28;20211;-59
2022/04/12 11:12:48;;;;;;;2.67;1.50;;;;;;;;;;5096892;28;20211;-59
2022/04/12 11:15:26;;;;;;;1.52;1.42;;;;;;;;;;5100050;28;20212;-60
2022/04/12 11:18:06;;;;;;;1.30;1.30;;;;;;;;;;5100033;28;20207;-59
2022/04/12 11:20:32;;;;;;;3.33;1.60;;;;;;;;;;5099672;28;20241;-59
2022/04/12 11:22:59;;;;;;;2.33;1.58;;;;;;;;;;5099776;28;20215;-58
2022/04/12 11:25:26;;;;;;;2.72;1.42;;;;;;;;;;5099440;28;20409;-60
2022/04/12 11:27:56;;;;;;;1.88;1.30;;;;;;;;;;5099546;28;20235;-60
2022/04/12 11:30:24;;;;;;;1.60;1.50;;;;;;;;;;5099443;28;20203;-59
2022/04/12 11:32:50;;;;;;;3.58;1.30;;;;;;;;;;5099889;28;20257;-59
2022/04/12 11:35:19;;;;;;;4.03;1.50;;;;;;;;;;5099669;28;20207;-59
2022/04/12 11:37:46;;;;;;;2.47;1.20;;;;;;;;;;5091003;28;20246;-59
2022/04/12 11:40:12;;;;;;;1.17;1.00;;;;;;;;;;5095719;28;20250;-59
2022/04/12 11:42:39;;;;;;;1.27;1.17;;;;;;;;;;5099432;28;20583;-60
2022/04/12 11:45:06;;;;;;;2.20;1.10;;;;;;;;;;5099358;28;20203;-59
2022/04/12 11:47:34;;;;;;;2.83;1.10;;;;;;;;;;5091972;28;20200;-60
2022/04/12 11:50:01;;;;;;;0.90;0.90;;;;;;;;;;5078818;28;20246;-57
2022/04/12 11:52:30;;;;;;;0.90;0.90;;;;;;;;;;5090882;28;20261;-60
2022/04/12 11:55:00;;;;;;;1.77;1.30;;;;;;;;;;5098400;28;20558;-59
2022/04/12 11:57:26;;;;;;;1.08;0.98;;;;;;;;;;5098963;28;20459;-58
2022/04/12 11:59:53;;;;;;;1.67;1.35;;;;;;;;;;5098573;28;20561;-59
2022/04/12 12:02:21;;;;;;;8.90;1.55;;;;;;;;;;5099020;28;20207;-59
2022/04/12 12:04:48;;;;;;;1.88;1.38;;;;;;;;;;5099110;28;20265;-59
2022/04/12 12:07:14;;;;;;;0.77;0.77;;;;;;;;;;5098884;28;20216;-58
2022/04/12 12:09:50;;;;;;;3.50;1.15;;;;;;;;;;5098762;28;20249;-59
2022/04/12 12:12:17;;;;;;;1.58;1.13;;;;;;;;;;5098796;28;20515;-59
2022/04/12 12:14:43;;;;;;;1.30;1.10;;;;;;;;;;5098853;28;20203;-60
2022/04/12 12:17:12;;;;;;;4.60;1.08;;;;;;;;;;5098720;28;20208;-60
2022/04/12 12:19:39;;;;;;;1.48;1.00;;;;;;;;;;5098570;28;20290;-59
2022/04/12 12:22:06;;;;;;;5.25;0.77;;;;;;;;;;5099062;28;20553;-60
2022/04/12 12:24:37;;;;;;;1.08;0.90;;;;;;;;;;5098815;28;20212;-60
2022/04/12 12:27:05;;;;;;;1.45;0.90;;;;;;;;;;5098954;28;20239;-60
2022/04/12 12:29:36;;;;;;;0.77;0.63;;;;;;;;;;5098532;28;20204;-60
2022/04/12 12:32:02;;;;;;;0.88;0.75;;;;;;;;;;5098662;28;20278;-59
2022/04/12 12:34:29;;;;;;;1.60;0.90;;;;;;;;;;5098537;28;20439;-60
2022/04/12 12:36:55;;;;;;;1.20;0.85;;;;;;;;;;5098320;28;20204;-60
2022/04/12 12:39:22;;;;;;;1.27;0.80;;;;;;;;;;5098198;28;20273;-60
2022/04/12 12:41:48;;;;;;;1.95;0.60;;;;;;;;;;5098421;28;20535;-60
2022/04/12 12:44:15;;;;;;;2.70;0.70;;;;;;;;;;5098304;28;20572;-58
2022/04/12 12:46:42;;;;;;;2.63;2.00;;;;;;;;;;5098002;28;20207;-59
2022/04/12 12:49:09;;;;;;;0.73;0.70;;;;;;;;;;5097646;28;20477;-60
2022/04/12 12:51:36;;;;;;;1.33;0.70;;;;;;;;;;5097888;28;20246;-59
2022/04/12 12:54:02;;;;;;;2.58;0.63;;;;;;;;;;5098375;28;20490;-59
2022/04/12 12:56:32;;;;;;;1.48;0.80;;;;;;;;;;5098309;28;20241;-59
2022/04/12 12:59:13;;;;;;;1.38;0.80;;;;;;;;;;5098203;28;20459;-59
2022/04/12 13:01:44;;;;;;;1.27;0.80;;;;;;;;;;5097705;28;20566;-59
2022/04/12 13:04:19;;;;;;;1.50;0.70;;;;;;;;;;5097790;28;20265;-58
2022/04/12 13:06:45;;;;;;;1.38;0.90;;;;;;;;;;5097489;28;20454;-59
2022/04/12 13:09:11;;;;;;;1.00;0.98;;;;;;;;;;5097652;28;20203;-59
2022/04/12 13:11:40;;;;;;;2.42;0.73;;;;;;;;;;5097188;28;20298;-58
2022/04/12 13:14:06;;;;;;;2.45;0.70;;;;;;;;;;5097828;28;20224;-59
2022/04/12 13:16:32;;;;;;;1.77;0.60;;;;;;;;;;5096801;28;20219;-59
2022/04/12 13:19:04;;;;;;;0.95;0.70;;;;;;;;;;5097680;28;20400;-57
2022/04/12 13:21:30;;;;;;;0.70;0.70;;;;;;;;;;5097392;28;20207;-58
2022/04/12 13:23:56;;;;;;;2.13;0.70;;;;;;;;;;5097787;28;20246;-59
2022/04/12 13:26:23;;;;;;;1.95;0.70;;;;;;;;;;5097783;28;20253;-58
2022/04/12 13:28:49;;;;;;;0.77;0.70;;;;;;;;;;5097224;28;20211;-58
2022/04/12 13:31:15;;;;;;;1.95;0.80;;;;;;;;;;5097364;28;20494;-60
2022/04/12 13:33:41;;;;;;;1.63;0.50;;;;;;;;;;5097545;28;20257;-58
2022/04/12 13:36:09;;;;;;;0.73;0.70;;;;;;;;;;5097457;28;20214;-57
2022/04/12 13:38:35;;;;;;;0.60;0.60;;;;;;;;;;5097137;28;20208;-58
2022/04/12 13:41:01;;;;;;;0.90;0.60;;;;;;;;;;5097128;28;20265;-59
2022/04/12 13:43:28;;;;;;;3.90;0.70;;;;;;;;;;5097186;28;20207;-59
2022/04/12 13:45:54;;;;;;;3.45;0.90;;;;;;;;;;5097532;28;20445;-61
2022/04/12 13:48:20;;;;;;;0.80;0.75;;;;;;;;;;5097380;28;20248;-57
2022/04/12 13:50:46;;;;;;;0.90;0.50;;;;;;;;;;5096847;28;20203;-59
2022/04/12 13:53:15;;;;;;;0.88;0.60;;;;;;;;;;5096913;28;21310;-61
2022/04/12 13:55:41;;;;;;;0.32;0.32;;;;;;;;;;5097037;28;20208;-61
2022/04/12 13:58:07;;;;;;;0.68;0.68;;;;;;;;;;5096789;28;20207;-60
2022/04/12 14:00:33;;;;;;;0.80;0.70;;;;;;;;;;5096311;28;20561;-59
2022/04/12 14:03:00;;;;;;;1.35;0.60;;;;;;;;;;5096671;28;20433;-61
2022/04/12 14:05:26;;;;;;;1.65;0.70;;;;;;;;;;5096734;28;20609;-60
2022/04/12 14:07:52;;;;;;;1.13;0.75;;;;;;;;;;5096257;28;20399;-61
2022/04/12 14:10:20;;;;;;;2.78;0.98;;;;;;;;;;5097009;28;20235;-60
2022/04/12 14:12:46;;;;;;;3.03;0.70;;;;;;;;;;5097109;28;20565;-58
2022/04/12 14:15:13;;;;;;;2.50;0.90;;;;;;;;;;5096848;28;20435;-59
2022/04/12 14:17:39;;;;;;;0.80;0.80;;;;;;;;;;5096068;28;20215;-60
2022/04/12 14:20:06;;;;;;;1.77;1.27;;;;;;;;;;5096280;28;20215;-61
2022/04/12 14:22:32;;;;;;;2.90;0.90;;;;;;;;;;5096924;28;20212;-61
2022/04/12 14:25:00;;;;;;;0.88;0.88;;;;;;;;;;5096819;28;20507;-60
2022/04/12 14:27:27;;;;;;;0.80;0.80;;;;;;;;;;5096485;28;20539;-59
2022/04/12 14:29:53;;;;;;;2.20;1.10;;;;;;;;;;5096298;28;20203;-60
2022/04/12 14:32:20;;;;;;;2.15;1.50;;;;;;;;;;5096422;28;20212;-59
2022/04/12 14:34:46;;;;;;;0.80;0.77;;;;;;;;;;5096605;28;20207;-60
2022/04/12 14:37:12;;;;;;;1.50;1.35;;;;;;;;;;5096815;28;20279;-61
2022/04/12 14:39:38;;;;;;;2.78;1.23;;;;;;;;;;5096575;28;20269;-59
2022/04/12 14:42:05;;;;;;;1.63;1.02;;;;;;;;;;5096734;28;20208;-60